Time;durP1;ratioP1;P1;durP2;ratioP2;P2;SDS_P1;SDS_P2;PMS_P1;PMS_P2;Temp;Humidity;BMP_temperature;BMP_pressure;BME280_temperature;BME280_humidity;BME280_pressure;Samples;Min_cycle;Max_cycle;Signal;HPM_P1;HPM_P2
2022/05/10 00:01:47;;;;;;;5.63;2.58;;;;;;;13.92;40.16;94316.69;4992371;28;20042;-71
2022/05/10 00:04:13;;;;;;;3.92;2.28;;;;;;;13.81;40.34;94304.78;4989267;28;20397;-72
2022/05/10 00:06:43;;;;;;;3.47;1.60;;;;;;;13.78;40.25;94316.13;4988796;28;20034;-72
2022/05/10 00:09:09;;;;;;;3.30;1.63;;;;;;;13.77;40.57;94306.53;5007805;28;20689;-72
2022/05/10 00:11:35;;;;;;;2.95;1.60;;;;;;;13.79;40.48;94307.00;4991691;28;20072;-72
2022/05/10 00:14:00;;;;;;;2.58;1.55;;;;;;;13.76;40.71;94308.44;4987699;28;20041;-72
2022/05/10 00:16:26;;;;;;;2.65;1.40;;;;;;;13.77;40.56;94311.88;4992273;28;20038;-72
2022/05/10 00:18:52;;;;;;;4.13;1.50;;;;;;;13.69;40.64;94303.56;4981686;28;20051;-72
2022/05/10 00:21:22;;;;;;;2.75;1.45;;;;;;;13.72;40.67;94307.50;4975155;28;20118;-72
2022/05/10 00:23:48;;;;;;;3.10;1.92;;;;;;;13.74;40.72;94310.63;4971215;28;20030;-72
2022/05/10 00:26:13;;;;;;;4.18;1.73;;;;;;;13.70;40.76;94312.38;4976519;28;20041;-73
2022/05/10 00:28:39;;;;;;;3.30;1.40;;;;;;;13.55;41.34;94299.50;4987604;28;20037;-72
2022/05/10 00:31:06;;;;;;;1.85;1.50;;;;;;;13.62;41.25;94311.31;4994647;28;20262;-72
2022/05/10 00:33:31;;;;;;;4.32;1.63;;;;;;;13.42;41.44;94289.81;4991132;28;20046;-73
2022/05/10 00:35:58;;;;;;;1.30;1.20;;;;;;;13.52;41.26;94314.28;4992539;28;20434;-73
2022/05/10 00:38:44;;;;;;;2.22;1.42;;;;;;;13.51;41.01;94312.72;4989300;28;20088;-73
2022/05/10 00:41:18;;;;;;;3.83;1.58;;;;;;;13.46;41.18;94314.78;4963591;28;20050;-72
2022/05/10 00:43:49;;;;;;;2.55;1.58;;;;;;;13.34;41.63;94294.06;4974822;28;21505;-72
2022/05/10 00:46:45;;;;;;;3.63;1.73;;;;;;;13.45;41.59;94310.53;4971371;28;20518;-72
2022/05/10 00:49:20;;;;;;;3.70;1.50;;;;;;;13.42;41.53;94313.84;4967808;28;20038;-71
2022/05/10 00:51:48;;;;;;;3.60;1.50;;;;;;;13.25;41.82;94301.31;4970505;28;20076;-72
2022/05/10 00:54:48;;;;;;;2.70;1.60;;;;;;;13.32;42.06;94315.75;4970936;28;20045;-72
2022/05/10 00:57:16;;;;;;;4.25;2.20;;;;;;;13.28;41.76;94309.47;4962192;28;20453;-72
2022/05/10 01:00:06;;;;;;;5.60;1.88;;;;;;;13.10;41.98;94285.81;4965469;28;20034;-72
2022/05/10 01:02:51;;;;;;;3.00;1.80;;;;;;;13.24;42.24;94313.09;4993778;28;20034;-72
2022/05/10 01:05:30;;;;;;;5.68;2.65;;;;;;;13.21;42.11;94305.72;5011588;28;20050;-72
2022/05/10 01:08:26;;;;;;;3.25;1.90;;;;;;;13.18;41.92;94309.81;4993065;28;20080;-73
2022/05/10 01:11:16;;;;;;;3.25;1.52;;;;;;;13.17;42.13;94302.13;4993953;28;20076;-72
2022/05/10 01:13:59;;;;;;;4.03;1.75;;;;;;;13.16;42.50;94303.19;4992732;28;20034;-73
2022/05/10 01:16:25;;;;;;;6.25;2.15;;;;;;;13.07;42.07;94291.75;4990272;28;20042;-74
2022/05/10 01:18:52;;;;;;;3.50;2.08;;;;;;;13.12;41.75;94294.25;4994051;28;20040;-72
2022/05/10 01:21:55;;;;;;;3.00;1.92;;;;;;;13.14;41.83;94286.72;4992751;28;20034;-73
2022/05/10 01:24:57;;;;;;;3.58;2.47;;;;;;;13.16;41.74;94287.19;4988024;28;20194;-72
2022/05/10 01:27:31;;;;;;;2.55;1.75;;;;;;;13.10;42.27;94296.47;4975127;28;20038;-72
2022/05/10 01:30:16;;;;;;;2.30;1.60;;;;;;;13.06;42.27;94295.53;4974502;28;20034;-72
2022/05/10 01:35:31;;;;;;;2.55;1.80;;;;;;;12.96;41.89;94269.19;4973031;28;20053;-72
2022/05/10 01:38:07;;;;;;;5.03;2.00;;;;;;;12.97;42.50;94287.53;4992817;28;20363;-72
2022/05/10 01:40:38;;;;;;;4.38;2.30;;;;;;;12.93;42.71;94285.81;4988364;28;20041;-73
2022/05/10 01:43:19;;;;;;;2.53;1.80;;;;;;;12.94;42.71;94279.38;4991916;28;20406;-72
2022/05/10 01:45:53;;;;;;;2.83;1.70;;;;;;;12.81;42.78;94276.53;4983459;28;20093;-73
2022/05/10 01:48:21;;;;;;;3.13;2.00;;;;;;;12.86;42.64;94287.06;4975792;28;20109;-71
2022/05/10 01:51:14;;;;;;;2.85;1.48;;;;;;;12.90;42.59;94297.91;4972375;28;20291;-72
2022/05/10 01:53:41;;;;;;;3.13;1.75;;;;;;;12.89;42.67;94288.34;4990727;28;20079;-72
2022/05/10 01:56:15;;;;;;;2.10;1.67;;;;;;;12.86;42.94;94295.06;4984398;28;20499;-72
2022/05/10 01:58:42;;;;;;;4.15;2.00;;;;;;;12.85;42.82;94290.84;4986367;28;20417;-72
2022/05/10 02:01:14;;;;;;;7.03;2.17;;;;;;;12.78;43.04;94293.19;4994448;28;20034;-72
2022/05/10 02:04:02;;;;;;;4.78;1.95;;;;;;;12.80;43.23;94293.69;4995061;28;20042;-73
2022/05/10 02:06:33;;;;;;;2.53;1.70;;;;;;;12.76;43.19;94286.63;4990741;28;20100;-72
2022/05/10 02:09:01;;;;;;;4.72;2.00;;;;;;;12.74;43.44;94289.59;4993348;28;20516;-72
2022/05/10 02:11:28;;;;;;;2.50;1.83;;;;;;;12.71;43.24;94282.19;4993236;28;20033;-72
2022/05/10 02:14:09;;;;;;;3.08;1.80;;;;;;;12.64;43.72;94281.91;4993426;28;20273;-72
2022/05/10 02:17:00;;;;;;;3.17;1.63;;;;;;;12.67;43.35;94289.28;4991020;28;20042;-72
2022/05/10 02:19:37;;;;;;;2.88;1.55;;;;;;;12.46;43.73;94264.28;5009276;28;20405;-73
2022/05/10 02:22:12;;;;;;;6.85;2.10;;;;;;;12.57;43.74;94286.88;4990036;28;20038;-72
2022/05/10 02:24:49;;;;;;;4.13;1.88;;;;;;;12.63;43.68;94285.66;4995270;28;20971;-72
2022/05/10 02:27:33;;;;;;;2.08;1.40;;;;;;;12.50;44.00;94273.25;4994047;28;20428;-73
2022/05/10 02:30:22;;;;;;;2.45;1.60;;;;;;;12.57;43.75;94288.75;5000246;28;20022;-73
2022/05/10 02:33:06;;;;;;;2.90;1.70;;;;;;;12.58;43.88;94291.16;4997737;28;20042;-73
2022/05/10 02:35:57;;;;;;;2.83;2.45;;;;;;;12.40;43.89;94273.53;4995411;28;20421;-72
2022/05/10 02:38:26;;;;;;;4.70;1.90;;;;;;;12.37;44.27;94284.84;4995999;28;20049;-72
2022/05/10 02:40:55;;;;;;;6.80;2.15;;;;;;;12.41;44.41;94285.78;4999901;28;20112;-72
2022/05/10 02:43:26;;;;;;;3.28;2.17;;;;;;;12.36;44.53;94278.72;4998618;28;20076;-73
2022/05/10 02:45:54;;;;;;;3.30;2.08;;;;;;;12.27;44.47;94269.16;4996060;28;20085;-72
2022/05/10 02:48:30;;;;;;;5.70;2.20;;;;;;;12.39;44.49;94277.31;4997219;28;20041;-71
2022/05/10 02:50:57;;;;;;;2.58;2.00;;;;;;;12.25;44.59;94276.66;4996547;28;20037;-72
2022/05/10 02:53:22;;;;;;;7.43;2.72;;;;;;;12.30;44.54;94289.84;4995839;28;20022;-72
2022/05/10 02:56:09;;;;;;;3.10;2.13;;;;;;;12.32;44.40;94293.00;4998685;28;20427;-71
2022/05/10 02:58:56;;;;;;;3.03;2.45;;;;;;;12.30;44.57;94289.84;4995249;28;20348;-72
2022/05/10 03:01:50;;;;;;;3.78;2.10;;;;;;;12.24;44.80;94297.22;4995663;28;20048;-72
2022/05/10 03:04:15;;;;;;;3.60;2.10;;;;;;;12.18;44.97;94279.00;4967942;28;20402;-72
2022/05/10 03:06:44;;;;;;;2.20;2.00;;;;;;;12.21;44.76;94284.50;4978574;28;20030;-72
2022/05/10 03:09:10;;;;;;;4.78;2.53;;;;;;;12.12;44.78;94277.59;4981232;28;20034;-73
2022/05/10 03:11:36;;;;;;;5.32;2.15;;;;;;;12.29;44.65;94293.59;4982558;28;20085;-72
2022/05/10 03:14:02;;;;;;;2.80;1.85;;;;;;;12.27;44.76;94293.16;4976089;28;20042;-72
2022/05/10 03:16:29;;;;;;;8.60;2.25;;;;;;;12.24;44.73;94291.09;4977636;28;20034;-72
2022/05/10 03:18:54;;;;;;;3.67;1.83;;;;;;;12.16;44.95;94290.00;4979946;28;20411;-73
2022/05/10 03:21:20;;;;;;;3.83;2.33;;;;;;;12.16;44.76;94294.53;4975142;28;20038;-72
2022/05/10 03:23:46;;;;;;;2.67;1.77;;;;;;;12.11;45.24;94292.00;4978198;28;20058;-72
2022/05/10 03:26:14;;;;;;;3.10;1.85;;;;;;;11.96;45.43;94272.69;4992289;28;20080;-72
2022/05/10 03:28:40;;;;;;;4.22;1.80;;;;;;;12.02;45.57;94282.13;4994820;28;20049;-72
2022/05/10 03:31:11;;;;;;;7.57;1.85;;;;;;;12.01;45.53;94288.53;4985324;28;20497;-72
2022/05/10 03:33:37;;;;;;;4.07;2.33;;;;;;;12.06;45.65;94294.81;4970533;28;20401;-72
2022/05/10 03:36:02;;;;;;;4.10;2.33;;;;;;;12.05;45.58;94294.03;4978029;28;20758;-73
2022/05/10 03:38:29;;;;;;;3.03;2.00;;;;;;;12.06;45.54;94300.94;4995790;28;20053;-72
2022/05/10 03:40:55;;;;;;;3.35;1.77;;;;;;;12.07;45.75;94299.06;4972553;28;20498;-72
2022/05/10 03:43:20;;;;;;;4.82;1.88;;;;;;;11.82;45.81;94264.03;4974271;28;20041;-74
2022/05/10 03:45:46;;;;;;;2.60;1.73;;;;;;;11.89;46.03;94280.34;4968953;28;20039;-72
2022/05/10 03:48:12;;;;;;;5.03;2.38;;;;;;;11.95;46.24;94291.66;4974488;28;20054;-72
2022/05/10 03:50:38;;;;;;;3.03;1.67;;;;;;;12.05;46.34;94310.03;4969253;28;20092;-73
2022/05/10 03:53:03;;;;;;;4.55;2.15;;;;;;;12.16;45.68;94315.88;4974251;28;20510;-73
2022/05/10 03:55:29;;;;;;;3.42;1.67;;;;;;;12.18;45.95;94319.00;4972143;28;20042;-73
2022/05/10 03:57:55;;;;;;;3.80;2.30;;;;;;;12.24;46.07;94321.22;4971444;28;20046;-72
2022/05/10 04:00:27;;;;;;;2.75;2.22;;;;;;;12.28;46.42;94318.69;4971159;28;20384;-73
2022/05/10 04:02:55;;;;;;;7.53;3.83;;;;;;;12.32;46.23;94317.00;4970875;28;20458;-71
2022/05/10 04:05:21;;;;;;;3.92;2.17;;;;;;;12.34;46.21;94312.13;4974153;28;20032;-73
2022/05/10 04:07:48;;;;;;;2.63;2.05;;;;;;;12.32;45.83;94301.75;4969995;28;20038;-72
2022/05/10 04:10:14;;;;;;;5.70;2.85;;;;;;;12.51;45.71;94317.50;4974202;28;20859;-73
2022/05/10 04:12:41;;;;;;;4.25;2.25;;;;;;;12.59;45.45;94316.75;4970641;28;20646;-72
2022/05/10 04:15:08;;;;;;;5.72;2.42;;;;;;;12.58;45.21;94301.81;4973740;28;20034;-73
2022/05/10 04:17:34;;;;;;;4.85;2.50;;;;;;;12.71;44.93;94308.13;4974631;28;20108;-73
2022/05/10 04:19:59;;;;;;;4.45;2.95;;;;;;;12.83;44.54;94322.41;4970862;28;20477;-72
2022/05/10 04:22:25;;;;;;;5.90;3.35;;;;;;;12.68;43.94;94301.53;4974607;28;20038;-72
2022/05/10 04:24:50;;;;;;;5.60;3.58;;;;;;;12.86;44.04;94305.75;4972483;28;20053;-72
2022/05/10 04:27:16;;;;;;;6.13;3.78;;;;;;;12.95;43.73;94299.63;4974935;28;20034;-73
2022/05/10 04:29:41;;;;;;;5.57;3.00;;;;;;;13.09;44.15;94311.72;4972754;28;20030;-73
2022/05/10 04:32:07;;;;;;;5.40;3.42;;;;;;;13.29;44.27;94327.09;4976553;28;20601;-73
2022/05/10 04:34:33;;;;;;;3.90;2.63;;;;;;;13.45;43.67;94324.66;4988900;28;20093;-73
2022/05/10 04:36:58;;;;;;;4.80;3.03;;;;;;;13.52;43.86;94321.53;4995603;28;20030;-72
2022/05/10 04:39:24;;;;;;;6.45;2.97;;;;;;;13.65;43.71;94323.22;4996301;28;20062;-71
2022/05/10 04:41:52;;;;;;;5.53;2.90;;;;;;;13.66;42.56;94304.22;4994129;28;20030;-73
2022/05/10 04:44:18;;;;;;;6.00;3.20;;;;;;;13.81;42.52;94321.63;4996736;28;20108;-72
2022/05/10 04:46:43;;;;;;;4.68;2.50;;;;;;;13.82;42.32;94309.81;4980319;28;20054;-72
2022/05/10 04:49:12;;;;;;;6.68;3.47;;;;;;;13.94;42.11;94320.59;4975141;28;20031;-72
2022/05/10 04:51:38;;;;;;;4.28;3.05;;;;;;;13.80;41.29;94297.88;4972180;28;20422;-72
2022/05/10 04:54:06;;;;;;;6.25;3.17;;;;;;;13.97;41.42;94333.34;4972340;28;20578;-73
2022/05/10 04:56:31;;;;;;;5.97;3.38;;;;;;;14.00;41.61;94313.19;4974488;28;20109;-73
2022/05/10 04:58:56;;;;;;;7.13;3.45;;;;;;;13.80;42.84;94340.63;4971101;28;20042;-72
2022/05/10 05:01:27;;;;;;;4.13;2.65;;;;;;;14.07;41.85;94334.88;4974617;28;20038;-72
2022/05/10 05:03:55;;;;;;;8.00;5.35;;;;;;;14.23;41.75;94321.75;4973269;28;20047;-73
2022/05/10 05:06:23;;;;;;;7.28;4.00;;;;;;;14.27;41.88;94322.66;4972677;28;20061;-73
2022/05/10 05:08:48;;;;;;;9.25;5.20;;;;;;;14.42;41.56;94336.25;4971621;28;20037;-72
2022/05/10 05:11:14;;;;;;;5.80;4.18;;;;;;;14.41;42.33;94339.25;4971971;28;20034;-72
2022/05/10 05:13:39;;;;;;;8.45;3.90;;;;;;;14.28;42.77;94340.25;4974251;28;20039;-72
2022/05/10 05:16:05;;;;;;;9.15;4.80;;;;;;;13.61;43.79;94349.81;4968956;28;20093;-73
2022/05/10 05:18:31;;;;;;;5.50;4.25;;;;;;;13.53;44.32;94344.47;4970670;28;20114;-72
2022/05/10 05:20:56;;;;;;;10.23;3.70;;;;;;;13.51;44.05;94344.00;4972036;28;20031;-72
2022/05/10 05:23:22;;;;;;;8.30;4.40;;;;;;;13.27;43.93;94344.50;4972706;28;20458;-73
2022/05/10 05:25:48;;;;;;;6.18;3.90;;;;;;;13.86;43.80;94334.81;4971608;28;20367;-73
2022/05/10 05:28:15;;;;;;;8.70;4.25;;;;;;;14.03;42.23;94328.63;4971859;28;20058;-72
2022/05/10 05:30:42;;;;;;;6.40;4.03;;;;;;;14.17;42.27;94335.31;4971238;28;20130;-73
2022/05/10 05:33:07;;;;;;;7.47;4.05;;;;;;;14.28;42.67;94325.00;4970570;28;20034;-72
2022/05/10 05:35:33;;;;;;;9.05;4.10;;;;;;;14.26;43.23;94331.78;4969900;28;20030;-72
2022/05/10 05:37:59;;;;;;;14.23;4.75;;;;;;;14.32;43.50;94330.50;4973803;28;20046;-72
2022/05/10 05:40:25;;;;;;;6.45;3.60;;;;;;;14.53;42.51;94308.03;4971103;28;20608;-71
2022/05/10 05:42:51;;;;;;;5.95;4.65;;;;;;;14.46;42.38;94325.69;4970210;28;20047;-72
2022/05/10 05:45:19;;;;;;;8.43;3.60;;;;;;;13.73;43.10;94335.81;4973380;28;20061;-72
2022/05/10 05:47:45;;;;;;;5.78;4.13;;;;;;;14.01;43.36;94333.47;4974590;28;20038;-73
2022/05/10 05:50:12;;;;;;;8.57;4.03;;;;;;;14.58;41.83;94323.91;4969725;28;20941;-72
2022/05/10 05:52:38;;;;;;;9.20;5.00;;;;;;;14.63;41.86;94336.31;4967016;28;20041;-72
2022/05/10 05:55:05;;;;;;;5.95;3.75;;;;;;;14.91;41.07;94320.53;4965214;28;20038;-73
2022/05/10 05:57:31;;;;;;;9.32;4.00;;;;;;;14.74;41.78;94331.34;4964343;28;20050;-71
2022/05/10 05:59:58;;;;;;;7.05;4.07;;;;;;;14.62;42.11;94328.63;4969820;28;20034;-72
2022/05/10 06:02:24;;;;;;;3.83;3.20;;;;;;;14.97;40.90;94311.16;4966666;28;20081;-72
2022/05/10 06:04:51;;;;;;;8.95;3.22;;;;;;;15.08;40.91;94325.72;4965045;28;20039;-72
2022/05/10 06:07:16;;;;;;;10.38;3.85;;;;;;;14.56;41.74;94312.75;4965692;28;20042;-73
2022/05/10 06:09:43;;;;;;;7.40;2.88;;;;;;;14.68;41.69;94327.31;4964140;28;20493;-72
2022/05/10 06:12:11;;;;;;;4.95;3.13;;;;;;;15.24;40.36;94321.34;4967667;28;20034;-72
2022/05/10 06:14:38;;;;;;;8.77;4.15;;;;;;;14.75;41.11;94330.25;4969526;28;20452;-73
2022/05/10 06:17:05;;;;;;;11.32;4.32;;;;;;;14.97;40.55;94316.53;4967634;28;20587;-72
2022/05/10 06:19:32;;;;;;;8.63;3.28;;;;;;;15.46;40.02;94326.34;4967816;28;20069;-72
2022/05/10 06:21:58;;;;;;;4.55;2.95;;;;;;;15.27;39.39;94255.56;4969338;28;20526;-72
2022/05/10 06:24:24;;;;;;;3.45;2.38;;;;;;;15.68;39.42;94321.72;4968827;28;21889;-72
2022/05/10 06:26:50;;;;;;;5.32;2.47;;;;;;;15.51;39.87;94333.38;4965616;28;20026;-72
2022/05/10 06:29:16;;;;;;;3.65;2.72;;;;;;;15.20;40.44;94339.19;4971411;28;20018;-73
2022/05/10 06:31:43;;;;;;;5.78;3.03;;;;;;;15.58;39.59;94332.84;4968846;28;20149;-72
2022/05/10 06:34:10;;;;;;;5.72;2.85;;;;;;;15.92;39.82;94331.69;4969416;28;20049;-72
2022/05/10 06:36:36;;;;;;;5.63;2.70;;;;;;;15.88;39.63;94332.38;4964916;28;20580;-72
2022/05/10 06:39:02;;;;;;;3.85;2.50;;;;;;;16.23;38.76;94330.00;4970396;28;20030;-73
2022/05/10 06:41:27;;;;;;;9.07;2.80;;;;;;;15.92;39.34;94316.38;4969175;28;20033;-72
2022/05/10 06:43:52;;;;;;;4.57;2.60;;;;;;;16.17;39.07;94319.84;4964960;28;20052;-71
2022/05/10 06:46:20;;;;;;;4.60;2.85;;;;;;;16.25;39.45;94330.47;4967370;28;20298;-73
2022/05/10 06:48:47;;;;;;;3.30;2.67;;;;;;;16.58;38.63;94308.09;4966034;28;20507;-71
2022/05/10 06:51:14;;;;;;;7.40;3.03;;;;;;;16.20;39.03;94327.22;4961770;28;20126;-72
2022/05/10 06:53:41;;;;;;;4.88;4.30;;;;;;;15.93;40.06;94326.00;4965637;28;20045;-72
2022/05/10 06:56:07;;;;;;;4.60;3.42;;;;;;;16.58;39.06;94311.56;4960954;28;20066;-72
2022/05/10 06:58:34;;;;;;;5.85;2.75;;;;;;;16.02;39.68;94325.88;4968073;28;20049;-73
2022/05/10 07:00:59;;;;;;;4.78;2.65;;;;;;;16.21;39.56;94334.94;4966744;28;20050;-72
2022/05/10 07:03:29;;;;;;;6.93;2.92;;;;;;;15.96;39.62;94329.91;4967915;28;20047;-72
2022/05/10 07:05:55;;;;;;;11.73;3.97;;;;;;;15.99;39.21;94315.84;4967517;28;20026;-72
2022/05/10 07:08:21;;;;;;;4.72;2.58;;;;;;;15.84;39.55;94326.06;4970960;28;20038;-73
2022/05/10 07:10:47;;;;;;;3.60;2.60;;;;;;;16.20;39.19;94322.66;4956323;28;20043;-72
2022/05/10 07:13:21;;;;;;;8.68;2.60;;;;;;;16.82;37.26;94320.72;4965988;28;20711;-73
2022/05/10 07:15:47;;;;;;;4.72;2.08;;;;;;;16.79;37.91;94324.84;4972264;28;20515;-72
2022/05/10 07:18:13;;;;;;;3.53;2.50;;;;;;;15.90;38.13;94327.44;4970620;28;20034;-72
2022/05/10 07:20:40;;;;;;;5.43;2.40;;;;;;;16.61;38.28;94320.84;4973427;28;20030;-73
2022/05/10 07:23:07;;;;;;;5.13;1.85;;;;;;;16.66;36.61;94318.72;4965356;28;20042;-73
2022/05/10 07:25:32;;;;;;;4.10;2.33;;;;;;;16.33;36.90;94306.56;4970654;28;20149;-71
2022/05/10 07:27:58;;;;;;;2.78;1.60;;;;;;;16.67;36.87;94300.72;4969080;28;20034;-72
2022/05/10 07:30:25;;;;;;;3.80;1.98;;;;;;;16.81;36.88;94322.63;4972514;28;20044;-72
2022/05/10 07:32:51;;;;;;;5.35;1.80;;;;;;;17.16;35.80;94320.16;4971787;28;20057;-73
2022/05/10 07:36:23;;;;;;;2.80;1.92;;;;;;;17.03;36.39;94315.94;4969046;28;20042;-72
2022/05/10 07:38:03;;;;;;;3.05;1.58;;;;;;;17.01;35.86;94315.50;4973267;28;20045;-73
2022/05/10 07:40:29;;;;;;;1.80;1.40;;;;;;;17.18;36.07;94324.09;4966548;28;20038;-73
2022/05/10 07:42:54;;;;;;;6.40;2.28;;;;;;;17.33;35.62;94325.25;4970768;28;20137;-73
2022/05/10 07:45:19;;;;;;;4.50;2.13;;;;;;;17.39;35.82;94313.13;4969785;28;20374;-73
2022/05/10 07:47:46;;;;;;;15.95;2.47;;;;;;;17.30;36.71;94322.47;4970791;28;20692;-72
2022/05/10 07:50:12;;;;;;;6.75;2.15;;;;;;;17.38;37.69;94321.53;4970660;28;20908;-73
2022/05/10 07:52:39;;;;;;;3.33;2.42;;;;;;;17.86;36.86;94315.88;4967138;28;20148;-73
2022/05/10 07:55:05;;;;;;;8.02;2.92;;;;;;;17.69;37.12;94320.81;4964005;28;20077;-72
2022/05/10 07:57:30;;;;;;;5.20;2.30;;;;;;;17.87;36.02;94324.75;4970529;28;20153;-73
2022/05/10 07:59:56;;;;;;;8.70;3.15;;;;;;;18.02;35.81;94313.22;4970600;28;20030;-73
2022/05/10 08:02:21;;;;;;;3.92;2.40;;;;;;;17.80;36.00;94317.25;4961185;28;20018;-72
2022/05/10 08:04:46;;;;;;;5.35;2.58;;;;;;;18.09;35.19;94309.94;4965718;28;20430;-74
2022/05/10 08:07:12;;;;;;;6.15;2.90;;;;;;;18.12;35.05;94298.47;4967639;28;20517;-73
2022/05/10 08:09:37;;;;;;;3.00;2.15;;;;;;;17.30;33.65;94292.91;4967074;28;20070;-72
2022/05/10 08:12:03;;;;;;;2.78;1.50;;;;;;;16.98;34.23;94305.41;4964855;28;20462;-72
2022/05/10 08:14:29;;;;;;;3.63;1.75;;;;;;;16.88;34.01;94309.38;4965092;28;20026;-72
2022/05/10 08:16:54;;;;;;;3.85;1.42;;;;;;;17.02;33.62;94296.34;4969050;28;20928;-72
2022/05/10 08:19:20;;;;;;;6.10;2.63;;;;;;;17.68;34.51;94311.97;4966675;28;20042;-73
2022/05/10 08:21:45;;;;;;;2.75;1.60;;;;;;;17.82;33.49;94298.88;4968481;28;20049;-73
2022/05/10 08:24:10;;;;;;;5.63;2.15;;;;;;;17.84;33.32;94277.78;4959011;28;20350;-72
2022/05/10 08:26:36;;;;;;;3.10;1.73;;;;;;;17.87;32.90;94284.38;4965043;28;20030;-73
2022/05/10 08:29:02;;;;;;;2.63;1.73;;;;;;;17.29;31.33;94308.25;4964427;28;20057;-72
2022/05/10 08:31:28;;;;;;;2.53;1.55;;;;;;;17.22;31.66;94307.25;4964425;28;20046;-71
2022/05/10 08:33:53;;;;;;;1.50;1.17;;;;;;;16.94;31.64;94285.72;4970632;28;20292;-73
2022/05/10 08:36:18;;;;;;;1.95;1.40;;;;;;;17.04;32.01;94275.28;4971558;28;20038;-74
2022/05/10 08:38:44;;;;;;;1.95;1.13;;;;;;;17.03;31.83;94299.81;4960376;28;20069;-73
2022/05/10 08:41:21;;;;;;;2.67;1.42;;;;;;;17.35;32.14;94295.34;4970725;28;20402;-72
2022/05/10 08:43:54;;;;;;;2.85;1.60;;;;;;;17.78;32.27;94305.28;4968867;28;20034;-72
2022/05/10 08:46:31;;;;;;;3.70;2.13;;;;;;;17.47;32.49;94289.88;4980000;28;20458;-72
2022/05/10 08:49:03;;;;;;;4.63;1.70;;;;;;;17.65;31.43;94301.88;4978984;28;20080;-72
2022/05/10 08:51:31;;;;;;;2.72;1.38;;;;;;;17.75;31.91;94282.53;4984807;28;20042;-73
2022/05/10 08:53:56;;;;;;;2.22;2.00;;;;;;;18.29;32.94;94296.19;4986226;28;20573;-72
2022/05/10 08:56:27;;;;;;;6.47;1.58;;;;;;;18.12;32.61;94301.94;4991890;28;20029;-73
2022/05/10 08:59:12;;;;;;;5.25;1.63;;;;;;;18.05;31.60;94291.00;4983342;28;20133;-72
2022/05/10 09:02:07;;;;;;;4.15;1.70;;;;;;;17.89;30.50;94266.75;4990932;28;20452;-73
2022/05/10 09:04:55;;;;;;;2.15;1.23;;;;;;;18.07;31.36;94282.56;4989749;28;20042;-73
2022/05/10 09:07:42;;;;;;;4.88;1.83;;;;;;;18.25;30.93;94283.75;4988159;28;20372;-72
2022/05/10 09:10:24;;;;;;;1.58;1.48;;;;;;;18.54;34.21;94280.56;4991199;28;20557;-73
2022/05/10 09:13:03;;;;;;;1.77;1.40;;;;;;;18.70;32.32;94284.03;4990891;28;20049;-73
2022/05/10 09:15:44;;;;;;;2.70;1.20;;;;;;;17.81;31.12;94267.72;4991950;28;20041;-72
2022/05/10 09:18:20;;;;;;;5.82;1.27;;;;;;;18.17;31.54;94287.44;4989695;28;20683;-74
2022/05/10 09:20:58;;;;;;;1.98;1.30;;;;;;;17.79;31.82;94283.44;4992277;28;20042;-73
2022/05/10 09:23:39;;;;;;;1.25;1.00;;;;;;;17.49;32.00;94283.06;4988592;28;20114;-73
2022/05/10 09:26:05;;;;;;;1.27;0.95;;;;;;;17.76;32.47;94284.09;4970488;28;20061;-74
2022/05/10 09:29:24;;;;;;;1.75;1.10;;;;;;;17.88;32.31;94278.66;4968465;28;20042;-73
2022/05/10 09:34:58;;;;;;;2.58;1.65;;;;;;;17.42;32.70;94279.38;5005176;28;20064;-72
2022/05/10 09:37:33;;;;;;;2.35;1.55;;;;;;;17.32;32.37;94253.00;4973284;28;20618;-73
2022/05/10 09:40:19;;;;;;;2.50;1.60;;;;;;;17.45;32.75;94276.03;4968203;28;20459;-72
2022/05/10 09:42:49;;;;;;;1.55;1.20;;;;;;;17.27;32.67;94272.84;4965285;28;21289;-73
2022/05/10 09:45:23;;;;;;;1.70;1.25;;;;;;;17.59;32.72;94269.09;4969093;28;20041;-72
2022/05/10 09:47:59;;;;;;;2.50;1.60;;;;;;;17.44;32.27;94272.56;4969025;28;20037;-73
2022/05/10 09:50:45;;;;;;;2.20;1.90;;;;;;;17.48;32.18;94261.88;4969788;28;20153;-72
2022/05/10 09:53:20;;;;;;;2.22;1.40;;;;;;;18.07;32.60;94272.59;4988429;28;20952;-73
2022/05/10 09:56:28;;;;;;;2.08;1.52;;;;;;;18.06;32.89;94257.56;4990534;28;20156;-72
2022/05/10 09:58:56;;;;;;;2.75;1.60;;;;;;;18.40;31.84;94256.03;4986658;28;20049;-71
2022/05/10 10:01:41;;;;;;;4.40;1.75;;;;;;;18.56;32.65;94248.69;4991035;28;20650;-72
2022/05/10 10:04:18;;;;;;;2.40;1.60;;;;;;;18.28;32.12;94250.78;4988188;28;20081;-73
2022/05/10 10:06:43;;;;;;;3.20;1.50;;;;;;;18.04;31.88;94231.00;4987157;28;20414;-72
2022/05/10 10:09:09;;;;;;;2.00;1.63;;;;;;;18.35;32.09;94242.84;4984489;28;20045;-72
2022/05/10 10:11:38;;;;;;;2.63;1.55;;;;;;;17.97;31.82;94236.22;4984226;28;20034;-72
2022/05/10 10:14:06;;;;;;;2.28;1.60;;;;;;;18.48;31.21;94240.81;4967325;28;20042;-71
2022/05/10 10:16:45;;;;;;;3.35;1.38;;;;;;;18.62;31.23;94233.03;4974550;28;20034;-74
2022/05/10 10:19:29;;;;;;;3.30;1.55;;;;;;;18.86;30.45;94232.78;4983504;28;20053;-73
2022/05/10 10:22:03;;;;;;;3.28;1.30;;;;;;;18.56;31.49;94211.00;4978566;28;20572;-72
2022/05/10 10:24:50;;;;;;;2.88;1.55;;;;;;;18.35;31.64;94229.38;4970842;28;20616;-72
2022/05/10 10:27:27;;;;;;;4.72;1.83;;;;;;;18.10;31.51;94212.66;4983663;28;20039;-75
2022/05/10 10:30:03;;;;;;;3.22;1.52;;;;;;;17.77;31.75;94221.13;4970486;28;20337;-74
2022/05/10 10:32:33;;;;;;;2.45;1.55;;;;;;;17.96;32.20;94218.50;4989615;28;20145;-74
2022/05/10 10:35:16;;;;;;;2.40;1.55;;;;;;;18.11;32.60;94218.84;4986599;28;20344;-74
2022/05/10 10:38:19;;;;;;;2.25;1.20;;;;;;;17.97;32.24;94213.91;4999700;28;20048;-73
2022/05/10 10:40:52;;;;;;;5.57;1.40;;;;;;;18.00;31.35;94205.91;4944980;28;20054;-75
2022/05/10 10:43:33;;;;;;;2.58;1.50;;;;;;;18.02;30.95;94211.75;4943350;28;20411;-74
2022/05/10 10:46:16;;;;;;;3.15;1.45;;;;;;;18.21;32.04;94194.84;4947332;28;20050;-74
2022/05/10 10:48:47;;;;;;;2.55;1.85;;;;;;;18.34;31.62;94201.66;4976667;28;20077;-74
2022/05/10 10:51:15;;;;;;;3.13;1.55;;;;;;;18.46;32.18;94203.47;4994334;28;20466;-74
2022/05/10 10:53:43;;;;;;;1.50;1.23;;;;;;;18.63;30.68;94196.88;4987313;28;20063;-73
2022/05/10 10:56:30;;;;;;;2.60;1.65;;;;;;;18.65;30.79;94190.00;4972026;28;20038;-74
2022/05/10 10:59:31;;;;;;;1.95;1.75;;;;;;;18.89;30.71;94194.34;4970245;28;20051;-73
2022/05/10 11:01:56;;;;;;;1.35;1.20;;;;;;;18.93;30.29;94195.19;4957802;28;20525;-74
2022/05/10 11:04:51;;;;;;;3.13;1.50;;;;;;;18.89;28.93;94189.75;4969165;28;20046;-74
2022/05/10 11:07:35;;;;;;;1.50;1.20;;;;;;;19.42;29.72;94184.53;4971250;28;20041;-73
2022/05/10 11:10:37;;;;;;;2.05;1.20;;;;;;;19.05;28.57;94181.56;4972133;28;20361;-73
2022/05/10 11:13:11;;;;;;;1.48;1.25;;;;;;;18.92;29.16;94153.19;4968836;28;20057;-74
2022/05/10 11:15:53;;;;;;;3.27;1.40;;;;;;;18.76;28.59;94179.47;4967979;28;20041;-73
2022/05/10 11:18:43;;;;;;;1.83;1.20;;;;;;;19.11;28.68;94171.28;4969108;28;20034;-74
2022/05/10 11:21:12;;;;;;;1.30;1.10;;;;;;;19.43;30.77;94171.81;4969459;28;20058;-74
2022/05/10 11:23:52;;;;;;;4.30;1.60;;;;;;;19.69;28.83;94169.19;4972448;28;20037;-74
2022/05/10 11:26:23;;;;;;;1.77;1.20;;;;;;;19.73;26.06;94156.53;4970591;28;20053;-74
2022/05/10 11:29:05;;;;;;;1.25;0.98;;;;;;;19.12;26.82;94164.72;4984749;28;20041;-73
2022/05/10 11:32:01;;;;;;;1.92;1.33;;;;;;;18.88;27.99;94152.34;4968158;28;20078;-73
2022/05/10 11:35:08;;;;;;;1.58;1.08;;;;;;;18.92;28.00;94152.44;4969964;28;21141;-74
2022/05/10 11:38:02;;;;;;;1.80;1.30;;;;;;;19.16;28.61;94152.88;4971097;28;20061;-73
2022/05/10 11:40:37;;;;;;;2.03;1.08;;;;;;;19.08;27.14;94147.72;4964775;28;20046;-74
2022/05/10 11:43:43;;;;;;;2.15;1.20;;;;;;;18.97;25.10;94142.13;4967321;28;20365;-73
2022/05/10 11:46:15;;;;;;;1.58;1.20;;;;;;;19.16;25.66;94141.31;4954708;28;20058;-74
2022/05/10 11:48:59;;;;;;;2.00;1.48;;;;;;;19.36;24.47;94137.41;4969734;28;20047;-74
2022/05/10 11:52:00;;;;;;;1.10;1.00;;;;;;;19.61;24.55;94121.66;4966838;28;20053;-75
2022/05/10 11:54:53;;;;;;;1.23;0.95;;;;;;;19.53;26.85;94120.00;4922456;28;20113;-74
2022/05/10 11:57:21;;;;;;;2.85;1.50;;;;;;;19.04;26.18;94118.00;4969303;28;20051;-72
2022/05/10 11:59:46;;;;;;;1.90;1.25;;;;;;;19.04;26.99;94117.22;4962936;28;20596;-73
2022/05/10 12:02:38;;;;;;;1.67;1.10;;;;;;;19.04;27.34;94109.91;4969970;28;20297;-71
2022/05/10 12:05:09;;;;;;;1.95;1.27;;;;;;;18.89;25.98;94114.28;4966600;28;20079;-75